Time;durP1;ratioP1;P1;durP2;ratioP2;P2;SDS_P1;SDS_P2;PMS_P1;PMS_P2;Temp;Humidity;BMP_temperature;BMP_pressure;BME280_temperature;BME280_humidity;BME280_pressure;Samples;Min_cycle;Max_cycle;Signal;HPM_P1;HPM_P2
2022/12/14 00:01:52;;;;;;;20.77;12.93;;;;;;;-1.34;83.04;100419.28;4973959;28;20039;-45
2022/12/14 00:04:20;;;;;;;18.52;12.13;;;;;;;-1.30;83.42;100417.88;4981011;28;20050;-48
2022/12/14 00:06:48;;;;;;;22.63;13.43;;;;;;;-1.30;82.49;100415.19;4988022;28;20428;-49
2022/12/14 00:09:15;;;;;;;21.83;12.85;;;;;;;-1.32;83.11;100417.25;4992758;28;20073;-51
2022/12/14 00:11:43;;;;;;;20.67;13.07;;;;;;;-1.29;83.36;100421.38;4980193;28;20097;-48
2022/12/14 00:14:10;;;;;;;20.10;13.27;;;;;;;-1.27;82.92;100405.97;4984564;28;20047;-52
2022/12/14 00:16:38;;;;;;;19.40;12.20;;;;;;;-1.30;82.79;100401.84;4966651;28;20039;-47
2022/12/14 00:19:06;;;;;;;20.75;12.75;;;;;;;-1.34;82.83;100392.56;4995557;28;20038;-45
2022/12/14 00:21:34;;;;;;;22.02;13.25;;;;;;;-1.40;83.36;100380.00;4984869;28;20047;-45
2022/12/14 00:24:03;;;;;;;21.30;12.98;;;;;;;-1.39;84.04;100383.50;4979867;28;20038;-47
2022/12/14 00:26:32;;;;;;;17.55;11.98;;;;;;;-1.38;84.19;100385.97;4983725;28;20081;-45
2022/12/14 00:29:01;;;;;;;17.05;11.93;;;;;;;-1.35;83.37;100390.94;4979309;28;20101;-46
2022/12/14 00:31:30;;;;;;;19.40;12.30;;;;;;;-1.34;83.87;100392.56;4960670;28;20050;-46
2022/12/14 00:33:58;;;;;;;18.98;12.23;;;;;;;-1.30;83.40;100388.47;4973342;28;20118;-45
2022/12/14 00:36:25;;;;;;;19.23;12.27;;;;;;;-1.28;83.51;100374.91;4962684;28;20042;-44
2022/12/14 00:38:53;;;;;;;18.60;12.23;;;;;;;-1.26;83.09;100388.06;4981765;28;20034;-45
2022/12/14 00:41:21;;;;;;;18.67;12.20;;;;;;;-1.26;83.34;100388.88;4963379;28;20097;-46
2022/12/14 00:43:48;;;;;;;19.92;12.75;;;;;;;-1.27;82.89;100381.06;4986892;28;20081;-45
2022/12/14 00:46:16;;;;;;;18.83;12.05;;;;;;;-1.26;82.99;100377.38;4994996;28;20046;-47
2022/12/14 00:48:45;;;;;;;19.20;11.43;;;;;;;-1.26;82.68;100377.38;4984846;28;20129;-56
2022/12/14 00:51:13;;;;;;;21.00;12.50;;;;;;;-1.30;82.44;100364.44;4973719;28;20094;-50
2022/12/14 00:53:42;;;;;;;18.83;11.30;;;;;;;-1.35;81.85;100372.22;4986883;28;20043;-51
2022/12/14 00:56:10;;;;;;;17.98;11.85;;;;;;;-1.38;82.30;100359.25;4982522;28;20039;-44
2022/12/14 00:58:38;;;;;;;18.90;11.88;;;;;;;-1.40;82.69;100358.63;4969504;28;20097;-47
2022/12/14 01:01:07;;;;;;;18.55;11.45;;;;;;;-1.44;82.21;100351.19;4979136;28;20561;-46
2022/12/14 01:03:35;;;;;;;19.33;11.82;;;;;;;-1.41;82.76;100343.63;4962931;28;20100;-45
2022/12/14 01:06:02;;;;;;;21.27;12.63;;;;;;;-1.39;81.85;100335.41;4991711;28;20050;-46
2022/12/14 01:08:34;;;;;;;21.13;11.60;;;;;;;-1.35;82.31;100336.63;4984252;28;20058;-45
2022/12/14 01:11:06;;;;;;;18.58;11.63;;;;;;;-1.31;82.03;100325.34;4976712;28;20049;-49
2022/12/14 01:13:35;;;;;;;20.70;12.10;;;;;;;-1.26;81.68;100326.59;4963371;28;20078;-44
2022/12/14 01:16:08;;;;;;;17.02;11.48;;;;;;;-1.34;81.30;100323.09;4983424;28;20093;-48
2022/12/14 01:18:37;;;;;;;21.33;11.82;;;;;;;-1.43;81.07;100324.28;4976787;28;20560;-47
2022/12/14 01:21:10;;;;;;;18.08;11.65;;;;;;;-1.40;81.93;100329.22;4976178;28;20501;-47
2022/12/14 01:23:38;;;;;;;16.52;11.20;;;;;;;-1.35;80.91;100325.94;4976552;28;20537;-48
2022/12/14 01:26:05;;;;;;;17.58;11.32;;;;;;;-1.33;80.56;100321.22;4972750;28;20042;-48
2022/12/14 01:28:34;;;;;;;14.77;9.57;;;;;;;-1.33;81.14;100322.03;4966107;28;20061;-48
2022/12/14 01:31:12;;;;;;;16.75;11.15;;;;;;;-1.31;81.22;100322.66;4974053;28;20058;-48
2022/12/14 01:33:40;;;;;;;19.33;10.93;;;;;;;-1.29;80.65;100314.47;4988775;28;20039;-46
2022/12/14 01:36:10;;;;;;;16.70;10.88;;;;;;;-1.27;80.33;100314.25;4978208;28;20489;-49
2022/12/14 01:38:38;;;;;;;18.40;11.05;;;;;;;-1.33;80.34;100308.69;4992493;28;20049;-47
2022/12/14 01:41:07;;;;;;;18.45;11.60;;;;;;;-1.36;80.94;100316.28;4978277;28;20035;-48
2022/12/14 01:43:53;;;;;;;16.58;10.52;;;;;;;-1.35;80.88;100309.91;4965661;28;20078;-50
2022/12/14 01:46:36;;;;;;;16.58;10.55;;;;;;;-1.33;80.33;100327.41;4983636;28;20038;-46
2022/12/14 01:49:14;;;;;;;16.55;10.70;;;;;;;-1.35;79.80;100318.78;4971974;28;20042;-47
2022/12/14 01:51:51;;;;;;;17.63;10.93;;;;;;;-1.34;80.23;100317.75;4959575;28;20050;-48
2022/12/14 01:54:19;;;;;;;18.85;10.65;;;;;;;-1.34;79.87;100316.91;4981264;28;20055;-50
2022/12/14 01:56:47;;;;;;;23.42;11.18;;;;;;;-1.34;79.46;100314.25;4981519;28;20049;-49
2022/12/14 01:59:21;;;;;;;17.00;10.55;;;;;;;-1.34;79.68;100316.91;4988217;28;20089;-49
2022/12/14 02:01:48;;;;;;;15.18;10.38;;;;;;;-1.28;79.37;100313.44;4958979;28;20039;-47
2022/12/14 02:04:17;;;;;;;17.77;9.40;;;;;;;-1.29;79.04;100304.59;4974504;28;20065;-51
2022/12/14 02:06:47;;;;;;;17.60;10.60;;;;;;;-1.30;79.37;100313.66;4959340;28;20097;-48
2022/12/14 02:09:19;;;;;;;13.70;9.40;;;;;;;-1.34;79.45;100304.38;4967047;28;20533;-47
2022/12/14 02:12:17;;;;;;;15.98;10.07;;;;;;;-1.35;79.44;100300.06;4975662;28;20093;-48
2022/12/14 02:14:45;;;;;;;20.30;10.60;;;;;;;-1.37;78.77;100296.78;4975988;28;20050;-48
2022/12/14 02:17:13;;;;;;;19.33;10.73;;;;;;;-1.40;79.05;100291.81;4976994;28;20043;-53
2022/12/14 02:19:48;;;;;;;17.75;10.85;;;;;;;-1.39;78.87;100293.47;4978051;28;20041;-49
2022/12/14 02:22:28;;;;;;;16.55;10.63;;;;;;;-1.38;78.16;100296.97;4977220;28;20374;-49
2022/12/14 02:25:40;;;;;;;16.85;10.52;;;;;;;-1.35;78.97;100291.22;4985117;28;20047;-50
2022/12/14 02:28:34;;;;;;;16.45;9.38;;;;;;;-1.31;78.87;100287.13;4947591;28;20552;-49
2022/12/14 02:31:44;;;;;;;15.40;10.00;;;;;;;-1.33;77.19;100281.97;4975381;28;20113;-50
2022/12/14 02:34:34;;;;;;;18.95;10.93;;;;;;;-1.37;77.27;100275.41;4977098;28;20034;-47
2022/12/14 02:37:09;;;;;;;;;;;;;;;-1.40;77.85;100274.97;4980773;28;20049;-49
2022/12/14 02:39:49;;;;;;;14.77;8.55;;;;;;;-1.35;77.58;100276.03;4972848;28;20300;-48
2022/12/14 02:42:25;;;;;;;15.07;9.50;;;;;;;-1.30;78.09;100260.19;4977391;28;20070;-49
2022/12/14 02:45:24;;;;;;;16.83;10.82;;;;;;;-1.31;77.33;100263.88;4976972;28;20096;-49
2022/12/14 02:47:54;;;;;;;20.27;10.52;;;;;;;-1.30;77.12;100268.22;4978010;28;20564;-50
2022/12/14 02:50:38;;;;;;;16.10;10.13;;;;;;;-1.26;77.71;100270.47;4975470;28;20039;-49
2022/12/14 02:53:30;;;;;;;14.38;9.27;;;;;;;-1.22;77.50;100277.88;4973475;28;20038;-46
2022/12/14 02:56:02;;;;;;;14.65;9.43;;;;;;;-1.22;76.31;100277.88;4952781;28;20038;-45
2022/12/14 02:58:35;;;;;;;15.50;9.93;;;;;;;-1.23;76.52;100281.56;4978609;28;20046;-46
2022/12/14 03:01:03;;;;;;;16.10;9.57;;;;;;;-1.21;77.27;100278.69;4975191;28;20046;-46
2022/12/14 03:03:31;;;;;;;14.52;9.30;;;;;;;-1.20;76.45;100277.66;4971699;28;20577;-48
2022/12/14 03:06:00;;;;;;;14.82;9.60;;;;;;;-1.17;77.11;100274.59;4981018;28;20050;-46
2022/12/14 03:08:31;;;;;;;17.20;10.43;;;;;;;-1.16;76.49;100271.69;4979928;28;20144;-49
2022/12/14 03:11:01;;;;;;;15.75;9.90;;;;;;;-1.20;76.45;100267.81;4968052;28;20050;-50
2022/12/14 03:13:32;;;;;;;16.63;9.73;;;;;;;-1.19;76.84;100271.31;4971073;28;20128;-48
2022/12/14 03:16:21;;;;;;;15.07;9.80;;;;;;;-1.17;76.59;100264.72;4985283;28;20078;-49
2022/12/14 03:18:58;;;;;;;16.20;9.70;;;;;;;-1.22;76.25;100261.03;4982004;28;20049;-48
2022/12/14 03:21:30;;;;;;;16.00;9.60;;;;;;;-1.29;77.14;100256.50;4978193;28;20035;-49
2022/12/14 03:24:01;;;;;;;16.77;10.07;;;;;;;-1.27;77.23;100252.78;4961998;28;20109;-49
2022/12/14 03:27:00;;;;;;;14.75;9.27;;;;;;;-1.27;77.54;100258.13;4956660;28;20422;-50
2022/12/14 03:29:34;;;;;;;15.80;9.77;;;;;;;-1.31;77.68;100258.53;4944909;28;20070;-48
2022/12/14 03:32:06;;;;;;;17.27;9.75;;;;;;;-1.30;78.09;100257.53;4966639;28;20042;-49
2022/12/14 03:34:39;;;;;;;14.93;9.95;;;;;;;-1.24;77.95;100258.56;4981552;28;20077;-48
2022/12/14 03:37:18;;;;;;;16.95;9.88;;;;;;;-1.29;77.97;100251.13;4985678;28;20069;-47
2022/12/14 03:39:46;;;;;;;19.20;9.73;;;;;;;-1.34;77.80;100248.25;4956929;28;20058;-49
2022/12/14 03:42:35;;;;;;;14.85;9.55;;;;;;;-1.37;78.65;100242.50;4972062;28;20525;-48
2022/12/14 03:45:04;;;;;;;;;;;;;;;-1.38;78.49;100230.97;4965638;28;20046;-47
2022/12/14 03:47:43;;;;;;;18.10;9.73;;;;;;;-1.32;78.77;100234.72;4975062;28;19976;-47
2022/12/14 03:50:30;;;;;;;;;;;;;;;-1.30;77.64;100230.81;4978375;28;20071;-48
2022/12/14 03:53:11;;;;;;;16.70;9.77;;;;;;;-1.27;78.29;100226.03;4974210;28;19969;-47
2022/12/14 03:55:44;;;;;;;14.25;9.38;;;;;;;-1.33;77.44;100225.84;4968512;28;20516;-49
2022/12/14 03:58:52;;;;;;;14.40;9.40;;;;;;;-1.38;78.03;100214.94;4974335;28;20046;-49
2022/12/14 04:02:07;;;;;;;15.05;9.88;;;;;;;-1.37;78.65;100216.63;4974208;28;20047;-46
2022/12/14 04:04:41;;;;;;;18.10;9.82;;;;;;;-1.40;77.75;100211.66;4951286;28;20055;-49
2022/12/14 04:07:11;;;;;;;16.85;9.18;;;;;;;-1.46;78.29;100206.34;4978542;28;20097;-49
2022/12/14 04:18:55;;;;;;;16.00;9.18;;;;;;;-1.48;78.68;100208.38;4986027;28;20042;-51
2022/12/14 04:21:41;;;;;;;13.85;8.93;;;;;;;-1.38;79.45;100192.75;4965617;28;20038;-49
2022/12/14 04:27:26;;;;;;;16.20;10.25;;;;;;;-1.30;78.11;100185.38;4987013;28;20564;-50
2022/12/14 04:29:56;;;;;;;14.40;9.25;;;;;;;-1.30;77.88;100181.84;4973898;28;20123;-47
2022/12/14 04:32:33;;;;;;;13.77;9.20;;;;;;;-1.29;78.13;100178.97;4960543;28;20059;-47
2022/12/14 04:35:12;;;;;;;16.38;9.70;;;;;;;-1.24;77.70;100183.72;4974057;28;20126;-45
2022/12/14 04:37:43;;;;;;;15.90;9.60;;;;;;;-1.27;78.09;100167.25;4985567;28;20113;-47
2022/12/14 04:40:25;;;;;;;14.50;10.02;;;;;;;-1.34;78.00;100168.09;4978734;28;20117;-48
2022/12/14 04:43:00;;;;;;;13.88;9.15;;;;;;;-1.35;78.30;100165.63;4975764;28;20053;-47
2022/12/14 04:45:32;;;;;;;14.50;9.05;;;;;;;-1.32;78.63;100159.88;4971216;28;20085;-48
2022/12/14 04:48:16;;;;;;;15.48;9.65;;;;;;;-1.29;78.87;100156.78;4957236;28;20457;-51
2022/12/14 04:51:09;;;;;;;17.23;9.98;;;;;;;-1.34;78.46;100161.94;4974134;28;20051;-49
2022/12/14 04:53:39;;;;;;;;;;;;;;;-1.44;78.82;100166.84;4977784;28;20070;-48
2022/12/14 04:56:35;;;;;;;15.65;9.60;;;;;;;-1.55;79.08;100161.09;4973292;28;19934;-47
2022/12/14 04:59:03;;;;;;;15.30;11.05;;;;;;;-1.55;79.02;100160.28;4976905;28;20055;-50
2022/12/14 05:01:51;;;;;;;15.98;10.52;;;;;;;-1.57;79.22;100157.81;4962467;28;20093;-49
2022/12/14 05:04:56;;;;;;;16.02;10.38;;;;;;;-1.52;79.27;100152.66;4984294;28;20426;-52
2022/12/14 05:07:41;;;;;;;15.60;9.65;;;;;;;-1.55;79.46;100150.41;4979891;28;20046;-50
2022/12/14 05:10:21;;;;;;;14.27;9.27;;;;;;;-1.51;79.44;100140.97;4978161;28;20042;-48
2022/12/14 05:13:06;;;;;;;13.30;8.70;;;;;;;-1.45;78.83;100135.81;4982497;28;20101;-48
2022/12/14 05:15:39;;;;;;;15.32;9.60;;;;;;;-1.46;78.46;100136.88;4973568;28;20035;-46
2022/12/14 05:18:07;;;;;;;15.15;9.82;;;;;;;-1.48;79.09;100136.25;4963781;28;20524;-48
2022/12/14 05:20:35;;;;;;;14.95;9.07;;;;;;;-1.50;78.99;100139.94;4295428;28;10000505;-47
2022/12/14 05:23:02;;;;;;;15.88;9.60;;;;;;;-1.51;78.94;100132.13;4979845;28;20082;-47
2022/12/14 05:25:30;;;;;;;15.65;9.35;;;;;;;-1.47;79.06;100127.19;4977280;28;20046;-48
2022/12/14 05:27:58;;;;;;;16.67;9.88;;;;;;;-1.45;79.00;100131.31;4992679;28;20089;-51
2022/12/14 05:30:25;;;;;;;14.88;9.15;;;;;;;-1.40;79.81;100126.16;4987655;28;20043;-47
2022/12/14 05:32:53;;;;;;;15.07;9.80;;;;;;;-1.37;79.43;100120.41;4984842;28;20046;-48
2022/12/14 05:35:21;;;;;;;13.82;9.38;;;;;;;-1.32;78.70;100122.47;4975908;28;20046;-49
2022/12/14 05:37:48;;;;;;;15.50;9.30;;;;;;;-1.36;78.39;100118.56;4973770;28;20098;-47
2022/12/14 05:40:16;;;;;;;14.52;9.57;;;;;;;-1.41;78.42;100119.19;4978299;28;20049;-51
2022/12/14 05:42:44;;;;;;;16.88;9.48;;;;;;;-1.43;78.41;100115.88;4963133;28;20085;-50
2022/12/14 05:45:17;;;;;;;15.20;9.60;;;;;;;-1.43;79.06;100113.22;4982042;28;20039;-47
2022/12/14 05:47:45;;;;;;;15.93;9.93;;;;;;;-1.49;78.79;100122.06;4972945;28;20047;-49
2022/12/14 05:50:12;;;;;;;17.50;9.88;;;;;;;-1.54;78.93;100129.84;4975488;28;20050;-48
2022/12/14 05:52:40;;;;;;;16.20;9.65;;;;;;;-1.51;79.63;100118.78;4977069;28;20074;-49
2022/12/14 05:55:08;;;;;;;23.83;9.40;;;;;;;-1.41;81.04;100124.53;4955446;28;20046;-47
2022/12/14 05:57:35;;;;;;;13.85;9.15;;;;;;;-1.31;80.32;100124.91;4972479;28;20049;-47
2022/12/14 06:00:04;;;;;;;16.85;9.52;;;;;;;-1.32;78.91;100123.28;4972736;28;20043;-48
2022/12/14 06:02:32;;;;;;;14.75;9.70;;;;;;;-1.39;78.56;100111.78;4973266;28;20097;-48
2022/12/14 06:04:59;;;;;;;13.45;8.88;;;;;;;-1.41;79.01;100113.84;4980801;28;20142;-47
2022/12/14 06:07:27;;;;;;;16.73;9.65;;;;;;;-1.38;79.47;100108.06;4966867;28;20496;-49
2022/12/14 06:09:55;;;;;;;15.02;9.32;;;;;;;-1.37;79.06;100104.38;4975796;28;20066;-46
2022/12/14 06:12:22;;;;;;;15.02;9.07;;;;;;;-1.39;78.70;100113.63;4973881;28;20066;-49
2022/12/14 06:14:50;;;;;;;15.93;9.95;;;;;;;-1.40;79.07;100110.13;4974054;28;20050;-49
2022/12/14 06:17:18;;;;;;;14.82;9.63;;;;;;;-1.41;79.47;100105.81;4993110;28;20046;-49
2022/12/14 06:19:45;;;;;;;16.00;9.90;;;;;;;-1.47;79.07;100117.31;4987094;28;20042;-46
2022/12/14 06:22:17;;;;;;;16.88;9.52;;;;;;;-1.61;79.23;100121.03;4991309;28;20053;-50
2022/12/14 06:24:45;;;;;;;13.95;9.70;;;;;;;-1.72;80.33;100117.13;4990881;28;20053;-49
2022/12/14 06:27:13;;;;;;;15.00;9.70;;;;;;;-1.81;80.83;100110.34;4988451;28;20037;-48
2022/12/14 06:29:40;;;;;;;15.48;10.10;;;;;;;-1.73;81.31;100110.97;4991009;28;20083;-48
2022/12/14 06:32:08;;;;;;;14.35;9.73;;;;;;;-1.61;81.30;100107.66;4957944;28;20105;-47
2022/12/14 06:34:36;;;;;;;15.95;10.30;;;;;;;-1.55;80.69;100112.19;4971324;28;20098;-47
2022/12/14 06:37:08;;;;;;;14.35;10.05;;;;;;;-1.53;80.13;100104.81;4991699;28;20054;-48
2022/12/14 06:39:35;;;;;;;15.82;9.57;;;;;;;-1.60;79.85;100107.47;4991533;28;20042;-48
2022/12/14 06:42:03;;;;;;;14.80;9.38;;;;;;;-1.67;79.95;100113.84;4991034;28;20085;-47
2022/12/14 06:44:31;;;;;;;15.95;10.13;;;;;;;-1.80;80.42;100112.81;4989021;28;20096;-47
2022/12/14 06:46:59;;;;;;;16.50;10.30;;;;;;;-1.86;81.00;100126.16;4988272;28;20050;-49
2022/12/14 06:49:27;;;;;;;15.45;10.30;;;;;;;-1.88;83.55;100128.19;4989583;28;20038;-50
2022/12/14 06:51:54;;;;;;;17.15;10.30;;;;;;;-1.96;81.69;100124.69;4991201;28;20042;-48
2022/12/14 06:54:22;;;;;;;15.95;10.60;;;;;;;-2.04;82.30;100124.91;4971623;28;20050;-50
2022/12/14 06:56:50;;;;;;;14.85;9.90;;;;;;;-2.03;82.45;100120.38;4969628;28;20042;-48
2022/12/14 06:59:18;;;;;;;14.05;9.82;;;;;;;-1.98;82.39;100123.25;4990711;28;20050;-46
2022/12/14 07:01:45;;;;;;;14.75;9.77;;;;;;;-1.96;81.91;100119.38;4990124;28;20050;-49
2022/12/14 07:04:19;;;;;;;15.32;9.68;;;;;;;-2.01;81.40;100129.00;4968400;28;20056;-47
2022/12/14 07:06:48;;;;;;;16.60;9.82;;;;;;;-2.08;81.70;100131.66;4989946;28;20470;-54
2022/12/14 07:09:16;;;;;;;15.05;10.10;;;;;;;-2.07;82.53;100129.81;4973323;28;20058;-49
2022/12/14 07:11:43;;;;;;;15.52;10.18;;;;;;;-2.05;82.73;100135.78;4989375;28;20037;-46
2022/12/14 07:14:17;;;;;;;14.63;9.45;;;;;;;-2.04;82.27;100146.25;4990380;28;20038;-51
2022/12/14 07:16:45;;;;;;;15.27;9.68;;;;;;;-2.00;82.18;100135.97;4973046;28;20054;-56
2022/12/14 07:19:16;;;;;;;15.45;10.15;;;;;;;-1.98;82.66;100139.28;4990943;28;20070;-53
2022/12/14 07:21:43;;;;;;;16.20;8.93;;;;;;;-1.94;82.57;100140.53;4990090;28;20097;-49
2022/12/14 07:24:11;;;;;;;14.77;9.27;;;;;;;-1.99;81.92;100141.13;4973081;28;20034;-49
2022/12/14 07:26:39;;;;;;;15.07;9.15;;;;;;;-2.02;82.55;100138.03;4989981;28;20046;-54
2022/12/14 07:29:08;;;;;;;13.70;8.82;;;;;;;-1.99;82.72;100130.44;4989120;28;20738;-50
2022/12/14 07:31:35;;;;;;;13.25;9.00;;;;;;;-1.96;81.49;100137.22;4979223;28;20050;-48
2022/12/14 07:34:03;;;;;;;14.85;9.38;;;;;;;-1.92;81.73;100141.16;4953533;28;20521;-50
2022/12/14 07:36:31;;;;;;;15.55;8.80;;;;;;;-1.85;82.19;100133.97;4970800;28;20057;-48
2022/12/14 07:38:59;;;;;;;14.82;9.27;;;;;;;-1.85;80.60;100133.97;4970722;28;20042;-48
2022/12/14 07:41:29;;;;;;;14.65;8.68;;;;;;;-1.91;81.17;100134.78;4988991;28;20053;-46
2022/12/14 07:43:59;;;;;;;15.85;9.35;;;;;;;-1.92;81.12;100133.13;4976446;28;20133;-46
2022/12/14 07:46:28;;;;;;;17.33;8.85;;;;;;;-1.91;81.23;100134.78;4967227;28;20042;-48
2022/12/14 07:48:57;;;;;;;13.43;8.55;;;;;;;-1.89;80.58;100132.72;4972381;28;20465;-48
2022/12/14 07:51:30;;;;;;;14.80;9.13;;;;;;;-1.93;80.34;100142.16;4963508;28;20050;-48
2022/12/14 07:53:59;;;;;;;17.70;8.95;;;;;;;-1.95;80.51;100144.19;4990098;28;20039;-51
2022/12/14 07:56:29;;;;;;;15.40;9.32;;;;;;;-1.97;80.32;100144.44;4972425;28;20038;-50
2022/12/14 07:58:58;;;;;;;14.20;8.88;;;;;;;-1.95;80.47;100145.06;4969503;28;20078;-49
2022/12/14 08:01:33;;;;;;;17.92;9.40;;;;;;;-1.94;79.70;100148.53;4957929;28;20101;-50
2022/12/14 08:04:06;;;;;;;15.55;8.75;;;;;;;-2.04;79.53;100159.59;4972476;28;20101;-49
2022/12/14 08:06:35;;;;;;;14.32;8.98;;;;;;;-2.20;79.56;100160.78;4953082;28;20038;-47
2022/12/14 08:09:04;;;;;;;14.95;8.57;;;;;;;-2.34;80.69;100153.75;4968753;28;20105;-50
2022/12/14 08:11:32;;;;;;;13.18;8.38;;;;;;;-2.28;80.63;100154.81;4974804;28;20047;-47
2022/12/14 08:14:03;;;;;;;14.23;8.40;;;;;;;-2.31;80.67;100160.53;4992371;28;20070;-49
2022/12/14 08:16:31;;;;;;;13.70;9.13;;;;;;;-2.36;81.10;100158.47;4986731;28;20490;-51
2022/12/14 08:18:59;;;;;;;12.82;8.27;;;;;;;-2.49;81.19;100166.44;4976425;28;20046;-52
2022/12/14 08:21:28;;;;;;;14.88;9.18;;;;;;;-2.57;81.81;100162.91;4975335;28;20042;-49
2022/12/14 08:23:56;;;;;;;17.05;9.10;;;;;;;-2.60;81.78;100157.97;4974044;28;20065;-51
2022/12/14 08:26:24;;;;;;;14.35;9.38;;;;;;;-2.60;82.55;100160.66;4974665;28;20402;-51
2022/12/14 08:28:59;;;;;;;15.30;8.75;;;;;;;-2.50;81.52;100168.28;4988375;28;20042;-49
2022/12/14 08:31:27;;;;;;;13.13;7.95;;;;;;;-2.49;81.24;100172.56;4999478;28;20097;-50
2022/12/14 08:33:57;;;;;;;14.50;8.85;;;;;;;-2.47;81.12;100180.41;4934985;28;20117;-51
2022/12/14 08:36:31;;;;;;;15.10;8.57;;;;;;;-2.49;81.56;100174.44;4974473;28;20042;-53
2022/12/14 08:39:05;;;;;;;13.50;8.55;;;;;;;-2.45;81.68;100170.34;4968410;28;20039;-47
2022/12/14 08:41:33;;;;;;;14.27;8.10;;;;;;;-2.39;81.05;100166.88;4982160;28;20043;-47
2022/12/14 08:44:03;;;;;;;14.18;8.57;;;;;;;-2.41;80.49;100163.56;4985936;28;20045;-47
2022/12/14 08:46:32;;;;;;;12.75;7.80;;;;;;;-2.49;80.78;100169.09;4977559;28;20073;-48
2022/12/14 08:49:00;;;;;;;13.27;7.95;;;;;;;-2.52;81.48;100164.97;4986889;28;20039;-47
2022/12/14 08:51:28;;;;;;;13.65;8.27;;;;;;;-2.49;81.81;100163.75;4966548;28;20050;-49
2022/12/14 08:53:57;;;;;;;13.82;8.18;;;;;;;-2.38;81.60;100169.34;4950996;28;20046;-48
2022/12/14 08:56:26;;;;;;;12.88;7.80;;;;;;;-2.41;80.33;100171.56;4976973;28;20568;-49
2022/12/14 08:58:54;;;;;;;15.50;8.65;;;;;;;-2.44;80.43;100166.66;4986699;28;20042;-50
2022/12/14 09:01:27;;;;;;;12.85;8.25;;;;;;;-2.48;80.62;100173.41;4981357;28;20158;-49
2022/12/14 09:04:06;;;;;;;11.60;7.63;;;;;;;-2.43;81.92;100178.94;4979673;28;20076;-47
2022/12/14 09:06:37;;;;;;;13.85;8.00;;;;;;;-2.46;80.06;100179.34;4979032;28;20050;-45
2022/12/14 09:09:06;;;;;;;14.68;8.07;;;;;;;-2.43;80.77;100174.47;4978488;28;20038;-47
2022/12/14 09:11:43;;;;;;;11.50;7.55;;;;;;;-2.38;80.55;100179.22;4979765;28;20039;-47
2022/12/14 09:14:10;;;;;;;12.70;8.25;;;;;;;-2.34;80.43;100179.63;4967097;28;20050;-47
2022/12/14 09:16:38;;;;;;;15.82;8.52;;;;;;;-2.32;81.21;100181.06;4976118;28;20122;-49
2022/12/14 09:19:06;;;;;;;15.68;8.95;;;;;;;-2.42;79.90;100185.94;4968175;28;20370;-48
2022/12/14 09:21:34;;;;;;;16.85;9.45;;;;;;;-2.52;80.66;100193.50;4979272;28;20057;-47
2022/12/14 09:24:02;;;;;;;13.38;8.60;;;;;;;-2.51;81.24;100192.47;4960087;28;20039;-46
2022/12/14 09:26:29;;;;;;;14.55;8.98;;;;;;;-2.64;81.04;100194.06;4976322;28;20094;-46
2022/12/14 09:28:57;;;;;;;14.38;9.25;;;;;;;-2.78;81.56;100198.47;4987084;28;20039;-45
2022/12/14 09:31:26;;;;;;;14.80;8.82;;;;;;;-2.72;82.45;100188.88;4970816;28;20045;-48
2022/12/14 09:33:54;;;;;;;14.30;8.88;;;;;;;-2.63;82.15;100194.88;4975434;28;20430;-50
2022/12/14 09:36:24;;;;;;;18.00;8.85;;;;;;;-2.55;81.81;100186.69;4963234;28;20050;-49
2022/12/14 09:38:54;;;;;;;15.90;9.30;;;;;;;-2.58;81.80;100185.25;4978139;28;20046;-47
2022/12/14 09:41:30;;;;;;;14.98;9.00;;;;;;;-2.61;82.01;100188.31;4974739;28;20560;-48
2022/12/14 09:43:58;;;;;;;;;;;;;;;-2.68;82.36;100194.66;4996180;28;20413;-49
2022/12/14 09:46:47;;;;;;;14.70;8.43;;;;;;;-2.62;82.72;100196.53;4989201;28;19929;-47
2022/12/14 09:49:40;;;;;;;15.43;8.40;;;;;;;-2.51;82.79;100195.13;4992001;28;20046;-51
2022/12/14 09:52:44;;;;;;;14.77;8.63;;;;;;;-2.31;82.75;100177.34;4981280;28;20042;-49
2022/12/14 09:55:26;;;;;;;13.05;8.32;;;;;;;-2.10;81.44;100183.59;4972419;28;20520;-47
2022/12/14 09:57:58;;;;;;;14.18;8.85;;;;;;;-2.05;80.49;100175.81;4962774;28;20034;-49
2022/12/14 10:00:39;;;;;;;15.32;8.15;;;;;;;-2.07;80.24;100178.66;4965301;28;20465;-48
2022/12/14 10:03:16;;;;;;;13.23;8.20;;;;;;;-2.06;80.40;100179.50;4977150;28;20456;-48
2022/12/14 10:06:08;;;;;;;14.60;8.45;;;;;;;-1.98;80.41;100165.97;4981174;28;20132;-48
2022/12/14 10:08:53;;;;;;;13.70;8.80;;;;;;;-1.94;80.10;100169.91;4976729;28;20040;-49
2022/12/14 10:11:43;;;;;;;15.40;8.93;;;;;;;-1.93;80.10;100161.66;4970863;28;20114;-48
2022/12/14 10:14:23;;;;;;;16.45;8.90;;;;;;;-1.91;80.10;100180.16;4977605;28;20356;-49
2022/12/14 10:17:09;;;;;;;16.48;8.50;;;;;;;-1.94;79.71;100170.72;4980782;28;20519;-47
2022/12/14 10:20:11;;;;;;;14.52;8.13;;;;;;;-1.88;80.53;100166.41;4985154;28;20415;-50
2022/12/14 10:22:43;;;;;;;14.63;8.77;;;;;;;-1.78;79.97;100169.53;4965886;28;20109;-47
2022/12/14 10:25:23;;;;;;;13.57;8.05;;;;;;;-1.69;78.52;100170.13;4971681;28;20047;-48
2022/12/14 10:28:05;;;;;;;14.65;8.38;;;;;;;-1.60;78.85;100173.44;4981116;28;20043;-49
2022/12/14 10:30:40;;;;;;;13.10;8.65;;;;;;;-1.51;78.64;100166.88;4975603;28;20069;-48
2022/12/14 10:33:28;;;;;;;14.48;8.95;;;;;;;-1.46;78.93;100167.06;4950864;28;20045;-51
2022/12/14 10:35:58;;;;;;;16.20;8.52;;;;;;;-1.46;77.45;100177.75;4977284;28;20045;-51
2022/12/14 10:38:38;;;;;;;18.10;8.70;;;;;;;-1.49;77.58;100178.19;4977301;28;20462;-54
2022/12/14 10:41:32;;;;;;;13.68;8.73;;;;;;;-1.54;78.32;100184.13;4959584;28;20062;-48
2022/12/14 10:44:23;;;;;;;14.90;9.40;;;;;;;-1.57;77.81;100178.34;4950648;28;20838;-49
2022/12/14 10:47:18;;;;;;;13.75;8.70;;;;;;;-1.45;78.13;100179.38;4975264;28;20441;-50
2022/12/14 10:50:24;;;;;;;15.80;8.60;;;;;;;-1.38;78.15;100182.88;4975832;28;20046;-51
2022/12/14 10:52:52;;;;;;;;;;;;;;;-1.37;77.19;100179.22;4955155;28;20062;-50
2022/12/14 10:55:31;;;;;;;13.00;8.02;;;;;;;-1.41;76.97;100175.28;4963658;28;20046;-48
2022/12/14 10:58:00;;;;;;;12.55;7.80;;;;;;;-1.32;77.50;100173.25;4973551;28;20489;-50
2022/12/14 11:00:27;;;;;;;13.98;8.60;;;;;;;-1.32;76.91;100168.72;4983577;28;20042;-51
2022/12/14 11:02:56;;;;;;;12.00;7.88;;;;;;;-1.33;76.36;100171.59;4974694;28;20066;-50
2022/12/14 11:05:35;;;;;;;14.73;8.77;;;;;;;-1.30;76.52;100172.00;4958985;28;20063;-49
2022/12/14 11:08:07;;;;;;;12.65;8.23;;;;;;;-1.25;75.90;100168.72;4971140;28;20039;-50
2022/12/14 11:10:39;;;;;;;12.82;8.48;;;;;;;-1.18;75.68;100168.69;4955560;28;20051;-49
2022/12/14 11:13:16;;;;;;;12.38;7.65;;;;;;;-1.11;76.12;100165.00;4964083;28;20121;-48
2022/12/14 11:15:46;;;;;;;13.48;8.35;;;;;;;-1.04;75.99;100167.66;4947406;28;20105;-49
2022/12/14 11:18:18;;;;;;;11.60;7.38;;;;;;;-0.99;74.91;100164.34;4959429;28;20062;-48
2022/12/14 11:20:57;;;;;;;12.80;8.05;;;;;;;-0.96;74.11;100170.13;4962004;28;20043;-48
2022/12/14 11:23:40;;;;;;;13.20;7.72;;;;;;;-0.99;72.45;100175.88;4966524;28;20047;-50
2022/12/14 11:26:35;;;;;;;14.18;8.32;;;;;;;-1.04;73.71;100172.19;4961671;28;20106;-48
2022/12/14 11:29:05;;;;;;;11.52;7.32;;;;;;;-1.06;72.55;100177.72;4965124;28;20035;-52
2022/12/14 11:31:39;;;;;;;13.00;7.57;;;;;;;-1.06;73.33;100172.38;4965107;28;20520;-51
2022/12/14 11:34:19;;;;;;;13.00;7.95;;;;;;;-1.05;73.45;100174.03;4967768;28;20062;-46
2022/12/14 11:36:49;;;;;;;11.80;7.72;;;;;;;-0.97;74.71;100173.81;4961050;28;20094;-50
2022/12/14 11:39:24;;;;;;;13.60;7.97;;;;;;;-0.89;74.76;100168.25;4953714;28;20094;-51
2022/12/14 11:41:57;;;;;;;12.70;7.65;;;;;;;-0.84;74.67;100169.47;4969133;28;20504;-45
2022/12/14 11:44:29;;;;;;;14.55;8.07;;;;;;;-0.78;73.94;100166.78;4954756;28;20095;-50
2022/12/14 11:46:57;;;;;;;12.63;7.53;;;;;;;-0.74;73.05;100162.66;4963916;28;20054;-48
2022/12/14 11:49:26;;;;;;;11.27;7.35;;;;;;;-0.77;72.51;100168.44;4955002;28;20137;-49
2022/12/14 11:52:18;;;;;;;14.20;7.40;;;;;;;-0.78;72.90;100165.97;4957198;28;20387;-49
2022/12/14 11:54:52;;;;;;;13.40;7.88;;;;;;;-0.76;73.12;100162.03;4954552;28;20046;-49
2022/12/14 11:57:45;;;;;;;;;;;;;;;-0.70;74.60;100163.03;4959389;28;20053;-47
2022/12/14 12:00:41;;;;;;;14.63;7.68;;;;;;;-0.61;73.71;100161.78;4961001;28;20297;-50